Time;durP1;ratioP1;P1;durP2;ratioP2;P2;SDS_P1;SDS_P2;PMS_P1;PMS_P2;Temp;Humidity;BMP_temperature;BMP_pressure;BME280_temperature;BME280_humidity;BME280_pressure;Samples;Min_cycle;Max_cycle;Signal;HPM_P1;HPM_P2
2023/05/24 00:01:07;;;;;;;6.23;5.70;;;12.50;99.90;;;;;;5075901;28;20315;-55
2023/05/24 00:03:33;;;;;;;6.20;5.60;;;12.40;99.90;;;;;;5076071;28;20180;-55
2023/05/24 00:06:05;;;;;;;6.97;5.47;;;12.50;99.90;;;;;;5075915;28;20422;-53
2023/05/24 00:08:32;;;;;;;7.00;5.40;;;12.50;55.80;;;;;;5075982;28;20435;-53
2023/05/24 00:10:57;;;;;;;6.33;5.47;;;12.40;1.00;;;;;;5076182;28;20426;-55
2023/05/24 00:13:23;;;;;;;8.23;5.27;;;12.40;1.00;;;;;;5075693;28;20431;-57
2023/05/24 00:15:49;;;;;;;7.07;5.60;;;12.40;1.00;;;;;;5075980;28;20183;-55
2023/05/24 00:18:16;;;;;;;6.33;5.70;;;12.40;1.00;;;;;;5075868;28;20515;-55
2023/05/24 00:20:43;;;;;;;8.50;5.00;;;12.40;1.00;;;;;;5075707;28;20423;-54
2023/05/24 00:23:08;;;;;;;5.83;5.17;;;12.30;1.00;;;;;;5075705;28;20427;-56
2023/05/24 00:25:34;;;;;;;5.30;4.73;;;12.30;1.00;;;;;;5075389;28;20412;-56
2023/05/24 00:28:00;;;;;;;4.87;4.20;;;12.30;1.00;;;;;;5033889;28;1187432;-56
2023/05/24 00:30:26;;;;;;;7.07;6.30;;;12.20;19.70;;;;;;5076635;28;20415;-56
2023/05/24 00:32:52;;;;;;;8.27;5.97;;;12.20;1.00;;;;;;5076546;28;20172;-55
2023/05/24 00:35:17;;;;;;;6.63;5.20;;;12.20;1.00;;;;;;5077224;28;20181;-56
2023/05/24 00:37:44;;;;;;;7.37;6.10;;;12.20;99.90;;;;;;5080563;28;20258;-54
2023/05/24 00:40:11;;;;;;;6.43;5.13;;;12.20;99.90;;;;;;5080594;28;20173;-57
2023/05/24 00:42:37;;;;;;;6.53;5.47;;;12.20;99.90;;;;;;5080396;28;20441;-56
2023/05/24 00:45:03;;;;;;;7.77;5.60;;;12.20;99.90;;;;;;5080606;28;20465;-58
2023/05/24 00:47:28;;;;;;;6.20;5.57;;;12.20;99.90;;;;;;5080287;28;20427;-54
2023/05/24 00:49:54;;;;;;;7.10;5.27;;;12.20;99.90;;;;;;5079176;28;20767;-55
2023/05/24 00:52:20;;;;;;;4.63;4.13;;;12.20;99.90;;;;;;5077930;28;20576;-56
2023/05/24 00:54:46;;;;;;;6.83;6.10;;;12.20;99.90;;;;;;5078010;28;20200;-55
2023/05/24 00:57:12;;;;;;;8.07;5.53;;;12.20;99.90;;;;;;5077982;28;20670;-55
2023/05/24 00:59:39;;;;;;;7.87;5.70;;;12.10;99.90;;;;;;5079886;28;20169;-55
2023/05/24 01:02:05;;;;;;;6.10;5.00;;;12.10;99.90;;;;;;5079201;28;20825;-55
2023/05/24 01:04:31;;;;;;;7.10;5.67;;;12.10;99.90;;;;;;5079120;28;20434;-57
2023/05/24 01:07:22;;;;;;;5.40;4.90;;;12.20;99.90;;;;;;5079077;28;20173;-57
2023/05/24 01:10:16;;;;;;;6.20;5.20;;;12.10;99.90;;;;;;5078017;28;20741;-55
2023/05/24 01:12:51;;;;;;;6.00;5.23;;;12.10;99.90;;;;;;5079040;28;20414;-58
2023/05/24 01:15:23;;;;;;;8.63;5.83;;;12.10;99.90;;;;;;5079015;28;20518;-57
2023/05/24 01:18:04;;;;;;;5.50;5.00;;;12.10;99.90;;;;;;5078848;28;20535;-57
2023/05/24 01:20:32;;;;;;;7.83;5.57;;;12.10;99.90;;;;;;5079593;28;20412;-57
2023/05/24 01:23:18;;;;;;;7.27;5.20;;;12.10;99.90;;;;;;5079548;28;20552;-57
2023/05/24 01:25:54;;;;;;;6.07;5.47;;;12.10;99.90;;;;;;5079656;28;20666;-57
2023/05/24 01:28:21;;;;;;;5.83;5.23;;;12.10;99.90;;;;;;5078560;28;20995;-55
2023/05/24 01:30:47;;;;;;;8.40;5.57;;;12.10;99.90;;;;;;5078378;28;20431;-57
2023/05/24 01:33:13;;;;;;;6.03;5.43;;;12.10;99.90;;;;;;5079487;28;20831;-53
2023/05/24 01:35:41;;;;;;;8.43;5.57;;;12.10;99.90;;;;;;5079948;28;20192;-56
2023/05/24 01:38:06;;;;;;;7.50;5.70;;;12.10;99.90;;;;;;5079526;28;20216;-55
2023/05/24 01:40:33;;;;;;;6.00;4.77;;;12.10;99.90;;;;;;5079452;28;20416;-57
2023/05/24 01:43:21;;;;;;;7.07;4.83;;;12.10;99.90;;;;;;5079805;28;20505;-55
2023/05/24 01:46:02;;;;;;;7.93;5.37;;;12.10;1.00;;;;;;5078897;28;20416;-58
2023/05/24 01:48:37;;;;;;;7.73;4.87;;;12.10;1.00;;;;;;5079563;28;20847;-57
2023/05/24 01:51:07;;;;;;;8.47;5.90;;;12.00;1.00;;;;;;5078544;28;20841;-57
2023/05/24 01:53:35;;;;;;;8.73;6.00;;;12.00;1.00;;;;;;5096045;28;20438;-54
2023/05/24 01:56:03;;;;;;;5.53;4.90;;;12.00;1.00;;;;;;5098043;28;20418;-64
2023/05/24 01:58:29;;;;;;;10.27;4.80;;;11.90;99.90;;;;;;5099564;28;20477;-56
2023/05/24 02:00:55;;;;;;;5.33;4.83;;;11.90;99.90;;;;;;5097854;28;20414;-57
2023/05/24 02:03:21;;;;;;;8.20;5.23;;;11.90;99.90;;;;;;5097959;28;20445;-58
2023/05/24 02:05:47;;;;;;;7.90;5.57;;;11.90;99.90;;;;;;5099030;28;20417;-53
2023/05/24 02:08:13;;;;;;;6.93;6.23;;;11.90;99.90;;;;;;5098242;28;20198;-56
2023/05/24 02:10:39;;;;;;;9.23;5.50;;;11.90;99.90;;;;;;5099281;28;20800;-54
2023/05/24 02:13:06;;;;;;;9.33;5.37;;;11.80;99.90;;;;;;5098856;28;20183;-56
2023/05/24 02:15:32;;;;;;;8.47;5.50;;;11.80;15.60;;;;;;5099183;28;20423;-53
2023/05/24 02:17:58;;;;;;;12.37;6.23;;;11.80;81.70;;;;;;5098954;28;20568;-57
2023/05/24 02:20:24;;;;;;;6.60;5.40;;;11.80;30.60;;;;;;5098287;28;20421;-56
2023/05/24 02:22:49;;;;;;;8.13;5.13;;;11.80;1.00;;;;;;5098896;28;20426;-58
2023/05/24 02:25:15;;;;;;;6.80;5.23;;;11.80;1.00;;;;;;5098394;28;20904;-57
2023/05/24 02:27:45;;;;;;;6.83;5.60;;;11.80;1.00;;;;;;5098816;28;20188;-55
2023/05/24 02:30:11;;;;;;;6.10;5.13;;;11.70;1.00;;;;;;5098524;28;20228;-57
2023/05/24 02:32:37;;;;;;;8.70;4.70;;;11.70;1.00;;;;;;5098809;28;20442;-57
2023/05/24 02:35:03;;;;;;;6.37;5.33;;;11.70;1.00;;;;;;5089060;28;20431;-57
2023/05/24 02:37:29;;;;;;;7.30;6.03;;;11.70;1.00;;;;;;5077851;28;20204;-55
2023/05/24 02:39:54;;;;;;;7.30;5.37;;;11.60;1.00;;;;;;5078097;28;20520;-56
2023/05/24 02:42:20;;;;;;;10.13;5.60;;;11.60;1.00;;;;;;5078550;28;20331;-58
2023/05/24 02:44:51;;;;;;;6.67;5.40;;;11.60;1.00;;;;;;5077537;28;20188;-57
2023/05/24 02:47:17;;;;;;;5.67;5.13;;;11.60;1.00;;;;;;5078104;28;20165;-54
2023/05/24 02:49:43;;;;;;;8.00;5.20;;;11.60;1.00;;;;;;5078240;28;20422;-57
2023/05/24 02:52:08;;;;;;;9.50;6.13;;;11.60;1.00;;;;;;5078283;28;20423;-54
2023/05/24 02:54:35;;;;;;;7.60;6.40;;;11.60;1.00;;;;;;5076835;28;20233;-56
2023/05/24 02:57:01;;;;;;;11.60;6.20;;;11.50;1.00;;;;;;5075700;28;20169;-56
2023/05/24 03:00:08;;;;;;;9.57;6.10;;;11.50;1.00;;;;;;5075964;28;20462;-57
2023/05/24 03:02:37;;;;;;;6.27;5.63;;;11.50;1.00;;;;;;5076046;28;20701;-58
2023/05/24 03:05:03;;;;;;;7.10;5.57;;;11.50;1.00;;;;;;5074927;28;20432;-58
2023/05/24 03:07:28;;;;;;;8.70;6.30;;;11.50;1.00;;;;;;5075731;28;20426;-56
2023/05/24 03:09:54;;;;;;;8.83;5.77;;;11.40;1.00;;;;;;5075123;28;20407;-56
2023/05/24 03:12:20;;;;;;;9.90;5.03;;;11.40;1.00;;;;;;5074884;28;20179;-58
2023/05/24 03:14:45;;;;;;;8.50;5.57;;;11.50;1.00;;;;;;5075904;28;20210;-56
2023/05/24 03:17:11;;;;;;;9.23;6.53;;;11.50;1.00;;;;;;5076242;28;20180;-58
2023/05/24 03:19:37;;;;;;;7.73;5.70;;;11.40;1.00;;;;;;5077273;28;20177;-57
2023/05/24 03:22:03;;;;;;;11.13;6.60;;;11.40;1.00;;;;;;5091223;28;20195;-57
2023/05/24 03:24:28;;;;;;;12.63;6.20;;;11.40;1.00;;;;;;5098016;28;20180;-57
2023/05/24 03:26:54;;;;;;;13.20;6.63;;;11.40;1.00;;;;;;5098034;28;20414;-58
2023/05/24 03:29:19;;;;;;;10.27;6.00;;;11.40;1.00;;;;;;5097050;28;20255;-57
2023/05/24 03:31:45;;;;;;;10.63;6.33;;;11.30;1.00;;;;;;5097364;28;20191;-55
2023/05/24 03:34:11;;;;;;;9.63;6.20;;;11.30;1.00;;;;;;5096260;28;20279;-55
2023/05/24 03:36:37;;;;;;;8.87;5.57;;;11.20;1.00;;;;;;5095950;28;20732;-58
2023/05/24 03:39:03;;;;;;;8.00;5.97;;;11.20;1.00;;;;;;5095963;28;20240;-53
2023/05/24 03:41:29;;;;;;;9.87;6.10;;;11.20;99.90;;;;;;5097154;28;20184;-58
2023/05/24 03:43:55;;;;;;;9.97;6.60;;;11.10;99.90;;;;;;5097387;28;20417;-55
2023/05/24 03:46:21;;;;;;;12.67;6.50;;;11.10;99.90;;;;;;5097663;28;20805;-56
2023/05/24 03:48:47;;;;;;;9.07;5.80;;;11.10;99.90;;;;;;5094628;28;20176;-57
2023/05/24 03:51:13;;;;;;;11.03;5.90;;;11.10;99.90;;;;;;5095684;28;20190;-58
2023/05/24 03:53:39;;;;;;;8.90;6.27;;;11.10;99.90;;;;;;5096128;28;20414;-57
2023/05/24 03:56:05;;;;;;;9.23;6.60;;;11.10;99.90;;;;;;5096403;28;20438;-57
2023/05/24 03:58:30;;;;;;;10.47;6.20;;;11.10;1.00;;;;;;5095644;28;20255;-57
2023/05/24 04:00:56;;;;;;;11.57;7.00;;;11.10;99.90;;;;;;5095636;28;20496;-55
2023/05/24 04:03:24;;;;;;;12.17;6.67;;;11.00;99.90;;;;;;5095087;28;20196;-56
2023/05/24 04:05:50;;;;;;;11.40;6.20;;;10.90;1.00;;;;;;5095378;28;20173;-56
2023/05/24 04:08:16;;;;;;;10.00;6.20;;;10.90;1.00;;;;;;5095953;28;20517;-57
2023/05/24 04:10:41;;;;;;;9.50;6.20;;;10.90;1.00;;;;;;5094475;28;20188;-57
2023/05/24 04:13:07;;;;;;;9.70;6.60;;;10.90;1.00;;;;;;5095976;28;20558;-54
2023/05/24 04:15:33;;;;;;;10.47;6.43;;;10.90;1.00;;;;;;5095509;28;20235;-54
2023/05/24 04:17:59;;;;;;;11.07;7.00;;;11.00;1.00;;;;;;5095696;28;20781;-53
2023/05/24 04:20:26;;;;;;;12.27;6.27;;;11.00;1.00;;;;;;5096407;28;20230;-56
2023/05/24 04:22:52;;;;;;;10.40;6.10;;;11.00;1.00;;;;;;5094178;28;20429;-57
2023/05/24 04:25:19;;;;;;;10.30;6.40;;;11.00;1.00;;;;;;5094662;28;20423;-57
2023/05/24 04:27:47;;;;;;;7.57;5.90;;;11.00;1.00;;;;;;5092911;28;20422;-56
2023/05/24 04:30:15;;;;;;;10.93;6.27;;;11.10;1.00;;;;;;5091953;28;20923;-58
2023/05/24 04:32:43;;;;;;;12.73;6.87;;;11.10;1.00;;;;;;5092599;28;20495;-55
2023/05/24 04:35:09;;;;;;;10.07;5.50;;;11.20;1.00;;;;;;5093751;28;20453;-55
2023/05/24 04:37:35;;;;;;;14.30;6.80;;;11.20;99.90;;;;;;5094178;28;20555;-58
2023/05/24 04:40:04;;;;;;;10.27;6.30;;;11.20;99.90;;;;;;5094773;28;20430;-57
2023/05/24 04:42:30;;;;;;;10.40;6.20;;;11.30;99.90;;;;;;5095505;28;20603;-55
2023/05/24 04:44:56;;;;;;;8.67;5.93;;;11.20;99.90;;;;;;5095041;28;20464;-58
2023/05/24 04:47:22;;;;;;;8.63;6.10;;;11.20;99.90;;;;;;5094754;28;20430;-57
2023/05/24 04:49:48;;;;;;;11.43;6.13;;;11.20;99.90;;;;;;5095047;28;20495;-56
2023/05/24 04:52:15;;;;;;;9.50;5.57;;;11.20;99.90;;;;;;5093405;28;20208;-56
2023/05/24 04:54:40;;;;;;;7.93;5.80;;;11.20;99.90;;;;;;5094943;28;20422;-57
2023/05/24 04:57:06;;;;;;;11.90;5.60;;;11.20;99.90;;;;;;5094051;28;20411;-56
2023/05/24 04:59:31;;;;;;;13.50;5.87;;;11.30;99.90;;;;;;5093703;28;20200;-57
2023/05/24 05:01:57;;;;;;;10.60;5.83;;;11.30;99.90;;;;;;5093350;28;20208;-57
2023/05/24 05:04:23;;;;;;;13.60;7.60;;;11.40;99.90;;;;;;5092684;28;20181;-56
2023/05/24 05:06:48;;;;;;;7.33;6.30;;;11.40;99.90;;;;;;5091990;28;20184;-57
2023/05/24 05:09:14;;;;;;;8.63;6.30;;;11.30;99.90;;;;;;5091762;28;20222;-58
2023/05/24 05:11:40;;;;;;;9.73;6.67;;;11.30;99.90;;;;;;5087327;28;20226;-57
2023/05/24 05:14:08;;;;;;;9.97;6.47;;;11.40;99.90;;;;;;5084498;28;20537;-57
2023/05/24 05:16:34;;;;;;;8.37;6.10;;;11.40;66.80;;;;;;5089695;28;20219;-54
2023/05/24 05:19:03;;;;;;;13.83;6.47;;;11.40;40.60;;;;;;5090155;28;20463;-56
2023/05/24 05:21:31;;;;;;;11.33;5.83;;;11.50;1.90;;;;;;5089608;28;20878;-57
2023/05/24 05:24:01;;;;;;;12.60;6.93;;;11.60;1.00;;;;;;5092110;28;20406;-58
2023/05/24 05:26:28;;;;;;;10.40;7.03;;;11.50;1.00;;;;;;5092535;28;20898;-56
2023/05/24 05:28:53;;;;;;;11.90;5.50;;;11.50;99.90;;;;;;5092407;28;20898;-58
2023/05/24 05:31:19;;;;;;;9.93;6.10;;;11.50;1.00;;;;;;5094316;28;20798;-58
2023/05/24 05:33:45;;;;;;;11.37;6.40;;;11.60;1.00;;;;;;5094384;28;20650;-53
2023/05/24 05:36:11;;;;;;;10.53;7.00;;;11.60;1.00;;;;;;5094216;28;20969;-56
2023/05/24 05:38:36;;;;;;;11.80;6.83;;;11.70;1.00;;;;;;5095530;28;20220;-57
2023/05/24 05:41:02;;;;;;;8.47;5.67;;;11.70;1.00;;;;;;5097047;28;20168;-56
2023/05/24 05:43:28;;;;;;;8.10;6.57;;;11.70;1.00;;;;;;5093390;28;20203;-56
2023/05/24 05:45:54;;;;;;;10.73;6.37;;;11.80;99.90;;;;;;5096542;28;20183;-54
2023/05/24 05:48:20;;;;;;;9.03;5.90;;;11.80;54.00;;;;;;5096155;28;20271;-58
2023/05/24 05:50:46;;;;;;;9.57;6.33;;;11.70;99.90;;;;;;5092400;28;20844;-55
2023/05/24 05:53:11;;;;;;;13.80;7.13;;;11.80;99.90;;;;;;5091315;28;20177;-55
2023/05/24 05:55:37;;;;;;;9.87;6.40;;;11.90;99.90;;;;;;5091038;28;20169;-56
2023/05/24 05:58:03;;;;;;;9.90;5.80;;;11.90;81.20;;;;;;5091489;28;20586;-59
2023/05/24 06:00:28;;;;;;;15.10;6.90;;;12.00;20.30;;;;;;5091385;28;20169;-58
2023/05/24 06:02:54;;;;;;;17.53;7.37;;;12.00;1.00;;;;;;5091078;28;20183;-58
2023/05/24 06:06:07;;;;;;;9.87;7.23;;;12.10;1.00;;;;;;5088471;28;20289;-59
2023/05/24 06:08:35;;;;;;;12.27;6.83;;;12.20;99.90;;;;;;5091269;28;20184;-55
2023/05/24 06:11:01;;;;;;;10.93;7.03;;;12.30;1.00;;;;;;5093457;28;20438;-57
2023/05/24 06:13:27;;;;;;;7.87;6.20;;;12.30;1.00;;;;;;5093917;28;20819;-53
2023/05/24 06:15:53;;;;;;;14.37;7.00;;;12.30;99.90;;;;;;5093471;28;20200;-56
2023/05/24 06:18:19;;;;;;;10.07;5.80;;;12.40;99.90;;;;;;5094398;28;20484;-53
2023/05/24 06:20:46;;;;;;;8.83;6.07;;;12.40;99.90;;;;;;5094658;28;20499;-55
2023/05/24 06:23:11;;;;;;;9.93;6.40;;;12.50;1.00;;;;;;5094758;28;20427;-55
2023/05/24 06:25:39;;;;;;;10.80;6.20;;;12.50;1.00;;;;;;5072511;28;20445;-55
2023/05/24 06:28:05;;;;;;;8.10;5.60;;;12.50;1.00;;;;;;5072989;28;20492;-53
2023/05/24 06:30:32;;;;;;;10.50;6.23;;;12.60;1.00;;;;;;5081341;28;20450;-56
2023/05/24 06:32:58;;;;;;;10.43;5.90;;;12.70;99.90;;;;;;5092996;28;20423;-55
2023/05/24 06:35:23;;;;;;;9.97;6.30;;;12.70;99.90;;;;;;5096123;28;20437;-54
2023/05/24 06:37:49;;;;;;;10.70;6.57;;;12.80;84.60;;;;;;5096431;28;20212;-55
2023/05/24 06:40:15;;;;;;;11.33;7.03;;;12.80;1.00;;;;;;5095634;28;20255;-54
2023/05/24 06:42:40;;;;;;;8.57;5.43;;;12.90;1.00;;;;;;5095885;28;20181;-55
2023/05/24 06:45:07;;;;;;;10.90;6.13;;;12.90;1.00;;;;;;5088284;28;20676;-56
2023/05/24 06:47:34;;;;;;;10.80;5.70;;;12.90;1.00;;;;;;5091246;28;20499;-54
2023/05/24 06:50:00;;;;;;;8.63;6.00;;;12.90;1.00;;;;;;5090342;28;20496;-59
2023/05/24 06:52:26;;;;;;;9.27;5.10;;;13.00;1.00;;;;;;5091819;28;20508;-57
2023/05/24 06:54:52;;;;;;;9.03;5.70;;;13.10;1.00;;;;;;5096487;28;20986;-55
2023/05/24 06:57:17;;;;;;;9.23;5.40;;;13.20;1.00;;;;;;5091850;28;20489;-54
2023/05/24 06:59:43;;;;;;;8.90;6.27;;;13.30;99.90;;;;;;5095367;28;20188;-57
2023/05/24 07:02:09;;;;;;;10.90;6.27;;;13.30;99.90;;;;;;5095275;28;20185;-54
2023/05/24 07:04:35;;;;;;;9.57;6.87;;;13.40;99.90;;;;;;5096102;28;20180;-56
2023/05/24 07:07:01;;;;;;;13.20;6.73;;;13.50;99.90;;;;;;5095305;28;20769;-56
2023/05/24 07:09:27;;;;;;;9.90;6.03;;;13.60;86.80;;;;;;5094512;28;20438;-56
2023/05/24 07:11:53;;;;;;;14.80;7.40;;;13.60;1.00;;;;;;5094742;28;20411;-56
2023/05/24 07:14:18;;;;;;;9.33;5.73;;;13.60;1.00;;;;;;5092626;28;20253;-56
2023/05/24 07:16:45;;;;;;;7.47;5.00;;;13.60;70.10;;;;;;5091527;28;20275;-57
2023/05/24 07:19:12;;;;;;;9.20;5.90;;;13.60;99.90;;;;;;5092087;28;20287;-57
2023/05/24 07:21:37;;;;;;;7.73;6.10;;;13.70;99.90;;;;;;5087269;28;20415;-55
2023/05/24 07:24:05;;;;;;;12.47;6.33;;;13.80;99.90;;;;;;5088932;28;20414;-55
2023/05/24 07:26:31;;;;;;;7.10;5.30;;;13.80;99.90;;;;;;5091858;28;20176;-55
2023/05/24 07:28:56;;;;;;;12.10;6.70;;;13.80;99.90;;;;;;5092030;28;20481;-57
2023/05/24 07:31:22;;;;;;;8.20;5.30;;;13.90;56.30;;;;;;5091252;28;20429;-55
2023/05/24 07:33:48;;;;;;;10.40;6.23;;;13.90;1.00;;;;;;5093576;28;20169;-54
2023/05/24 07:36:14;;;;;;;8.60;6.37;;;14.00;1.00;;;;;;5093939;28;20523;-57
2023/05/24 07:38:40;;;;;;;10.17;5.90;;;13.90;1.00;;;;;;5094583;28;20203;-56
2023/05/24 07:41:06;;;;;;;12.27;6.30;;;13.90;1.00;;;;;;5092888;28;20744;-55
2023/05/24 07:43:32;;;;;;;10.00;5.97;;;13.90;1.00;;;;;;5093553;28;20500;-57
2023/05/24 07:45:57;;;;;;;11.40;7.17;;;14.00;1.00;;;;;;5094467;28;20609;-55
2023/05/24 07:48:23;;;;;;;12.97;6.63;;;13.90;1.00;;;;;;5094732;28;20184;-59
2023/05/24 07:50:51;;;;;;;7.83;6.37;;;13.80;1.00;;;;;;5093806;28;20658;-55
2023/05/24 07:53:18;;;;;;;9.90;5.40;;;13.70;1.00;;;;;;5094941;28;20176;-55
2023/05/24 07:55:44;;;;;;;19.30;7.40;;;13.80;1.00;;;;;;5094736;28;20422;-53
2023/05/24 07:58:10;;;;;;;8.27;5.70;;;13.80;1.00;;;;;;5095246;28;20743;-57
2023/05/24 08:00:36;;;;;;;10.57;6.40;;;13.80;32.20;;;;;;5094629;28;20172;-57
2023/05/24 08:03:04;;;;;;;10.33;6.30;;;14.00;21.50;;;;;;5094416;28;20453;-57
2023/05/24 08:05:30;;;;;;;10.70;6.67;;;14.20;11.00;;;;;;5092744;28;20442;-56
2023/05/24 08:07:56;;;;;;;9.93;5.90;;;14.40;1.00;;;;;;5094744;28;20567;-57
2023/05/24 08:10:23;;;;;;;8.70;5.80;;;14.50;1.00;;;;;;5095506;28;20426;-57
2023/05/24 08:12:53;;;;;;;8.60;5.80;;;14.60;1.00;;;;;;5095828;28;20418;-57
2023/05/24 08:15:19;;;;;;;9.03;6.33;;;14.70;1.00;;;;;;5095907;28;20816;-56
2023/05/24 08:17:44;;;;;;;7.90;5.67;;;14.80;1.00;;;;;;5094614;28;20473;-57
2023/05/24 08:20:13;;;;;;;9.50;6.33;;;14.70;99.90;;;;;;5092658;28;20184;-56
2023/05/24 08:22:39;;;;;;;7.63;5.90;;;14.80;1.00;;;;;;5093229;28;20169;-56
2023/05/24 08:25:05;;;;;;;7.23;6.07;;;15.10;1.00;;;;;;5093575;28;20437;-56
2023/05/24 08:27:31;;;;;;;9.07;6.60;;;15.30;99.90;;;;;;5095298;28;20196;-56
2023/05/24 08:29:57;;;;;;;10.80;6.43;;;15.40;99.90;;;;;;5093348;28;20450;-57
2023/05/24 08:32:23;;;;;;;11.80;7.00;;;15.40;99.90;;;;;;5093588;28;20440;-56
2023/05/24 08:34:49;;;;;;;11.47;6.30;;;15.40;99.90;;;;;;5093743;28;20550;-53
2023/05/24 08:37:18;;;;;;;9.83;6.37;;;15.30;99.90;;;;;;5093819;28;20487;-56
2023/05/24 08:39:44;;;;;;;10.93;6.97;;;15.30;99.90;;;;;;5093260;28;20206;-55
2023/05/24 08:42:09;;;;;;;12.33;6.87;;;15.30;99.90;;;;;;5091802;28;20887;-53
2023/05/24 08:44:45;;;;;;;9.60;6.13;;;15.30;99.90;;;;;;5092103;28;20615;-55
2023/05/24 08:47:12;;;;;;;8.40;6.53;;;15.40;99.90;;;;;;5089791;28;20168;-56
2023/05/24 08:49:39;;;;;;;10.20;7.20;;;15.40;99.90;;;;;;5094350;28;20422;-56
2023/05/24 08:52:06;;;;;;;12.63;6.60;;;15.40;99.90;;;;;;5092264;28;20420;-54
2023/05/24 08:54:36;;;;;;;12.50;6.33;;;15.40;99.90;;;;;;5092611;28;20491;-52
2023/05/24 08:57:02;;;;;;;14.67;7.70;;;15.60;99.90;;;;;;5095989;28;20696;-56
2023/05/24 08:59:28;;;;;;;10.20;6.60;;;15.80;99.90;;;;;;5095711;28;20482;-55
2023/05/24 09:01:53;;;;;;;7.97;6.40;;;16.10;99.70;;;;;;5096294;28;20414;-55
2023/05/24 09:04:23;;;;;;;10.53;6.30;;;16.30;65.30;;;;;;5095557;28;20222;-55
2023/05/24 09:06:51;;;;;;;10.17;6.40;;;16.50;18.40;;;;;;5097240;28;20239;-57
2023/05/24 09:09:17;;;;;;;10.37;6.20;;;16.60;12.70;;;;;;5095717;28;20520;-51
2023/05/24 09:11:45;;;;;;;12.27;6.53;;;16.70;1.00;;;;;;5096691;28;20464;-56
2023/05/24 09:14:10;;;;;;;12.07;6.77;;;16.80;1.00;;;;;;5098828;28;20491;-54
2023/05/24 09:16:36;;;;;;;10.20;6.70;;;17.00;1.00;;;;;;5097424;28;20747;-56
2023/05/24 09:19:03;;;;;;;9.87;5.60;;;16.90;1.00;;;;;;5097036;28;20516;-56
2023/05/24 09:21:28;;;;;;;11.97;6.17;;;17.10;1.00;;;;;;5098320;28;20184;-56
2023/05/24 09:23:54;;;;;;;10.70;6.10;;;17.20;1.00;;;;;;5098853;28;20685;-55
2023/05/24 09:26:20;;;;;;;13.67;6.10;;;17.20;1.00;;;;;;5095866;28;20439;-56
2023/05/24 09:28:47;;;;;;;9.17;5.97;;;17.30;1.00;;;;;;5099020;28;20825;-54
2023/05/24 09:31:12;;;;;;;8.77;5.03;;;17.20;1.00;;;;;;5096469;28;20836;-57
2023/05/24 09:33:38;;;;;;;9.10;5.83;;;17.10;1.00;;;;;;5096269;28;20422;-56
2023/05/24 09:36:05;;;;;;;7.03;6.27;;;17.10;1.00;;;;;;5096823;28;20585;-57
2023/05/24 09:38:32;;;;;;;10.40;6.27;;;16.90;1.00;;;;;;5097513;28;20470;-56
2023/05/24 09:41:06;;;;;;;12.30;5.60;;;16.80;1.00;;;;;;5095474;28;20434;-55
2023/05/24 09:43:37;;;;;;;8.53;5.80;;;16.40;1.00;;;;;;5095059;28;20445;-57
2023/05/24 09:46:04;;;;;;;9.93;5.87;;;16.40;1.00;;;;;;5097353;28;20693;-57
2023/05/24 09:48:30;;;;;;;7.90;6.47;;;16.20;1.00;;;;;;5097798;28;20429;-51
2023/05/24 09:51:08;;;;;;;9.23;6.00;;;16.10;1.00;;;;;;5095625;28;20461;-56
2023/05/24 09:53:35;;;;;;;7.60;5.40;;;15.90;1.00;;;;;;5094428;28;20446;-56
2023/05/24 09:56:08;;;;;;;11.07;6.40;;;15.80;1.00;;;;;;5092173;28;20549;-55
2023/05/24 09:58:35;;;;;;;10.27;6.33;;;15.60;1.00;;;;;;5095378;28;20531;-54
2023/05/24 10:01:05;;;;;;;12.73;6.60;;;15.40;1.00;;;;;;5096818;28;20608;-54
2023/05/24 10:03:31;;;;;;;17.60;7.10;;;15.30;1.00;;;;;;5096197;28;20406;-55
2023/05/24 10:05:57;;;;;;;9.07;5.70;;;15.10;1.00;;;;;;5095277;28;20543;-56
2023/05/24 10:08:23;;;;;;;12.83;6.10;;;14.90;1.00;;;;;;5096298;28;20249;-56
2023/05/24 10:10:50;;;;;;;8.80;5.40;;;15.00;1.00;;;;;;5097302;28;20418;-55
2023/05/24 10:13:17;;;;;;;10.03;6.60;;;15.00;1.00;;;;;;5093743;28;20411;-55
2023/05/24 10:15:43;;;;;;;12.30;5.70;;;15.20;1.00;;;;;;5091761;28;20434;-57
2023/05/24 10:18:09;;;;;;;13.00;6.00;;;15.20;1.00;;;;;;5092850;28;20576;-55
2023/05/24 10:20:35;;;;;;;10.00;5.70;;;15.30;1.00;;;;;;5094250;28;20896;-57
2023/05/24 10:23:05;;;;;;;11.67;6.00;;;15.20;1.00;;;;;;5081155;28;20535;-56
2023/05/24 10:25:32;;;;;;;10.53;5.73;;;15.20;1.00;;;;;;5071161;28;20222;-57
2023/05/24 10:28:02;;;;;;;9.73;5.70;;;15.20;1.00;;;;;;5072461;28;20464;-57
2023/05/24 10:30:41;;;;;;;10.00;6.67;;;15.10;1.00;;;;;;5072423;28;20622;-58
2023/05/24 10:33:08;;;;;;;12.27;6.50;;;14.90;1.00;;;;;;5072079;28;20722;-56
2023/05/24 10:35:36;;;;;;;10.33;6.10;;;14.70;1.00;;;;;;5055586;28;20461;-57
2023/05/24 10:38:11;;;;;;;11.97;6.43;;;14.50;1.00;;;;;;5074526;28;20565;-56
2023/05/24 10:40:44;;;;;;;13.33;6.97;;;14.40;1.00;;;;;;5074706;28;20434;-57
2023/05/24 10:43:09;;;;;;;8.87;6.13;;;14.40;1.00;;;;;;5074447;28;20667;-53
2023/05/24 10:45:37;;;;;;;9.90;6.40;;;14.30;1.00;;;;;;5075345;28;20493;-57
2023/05/24 10:48:12;;;;;;;10.23;5.93;;;14.30;1.00;;;;;;5072854;28;20745;-54
2023/05/24 10:50:38;;;;;;;10.37;5.93;;;14.10;1.00;;;;;;5073065;28;20461;-56
2023/05/24 10:53:17;;;;;;;7.23;5.27;;;14.10;1.00;;;;;;5068413;28;20448;-55
2023/05/24 10:56:05;;;;;;;14.60;6.07;;;14.00;1.00;;;;;;5072594;28;20731;-57
2023/05/24 10:58:58;;;;;;;8.53;6.27;;;14.10;1.00;;;;;;5074153;28;20459;-57
2023/05/24 11:01:30;;;;;;;8.53;6.50;;;14.00;1.00;;;;;;5072246;28;20658;-55
2023/05/24 11:04:32;;;;;;;8.13;6.97;;;14.10;1.00;;;;;;5073236;28;20510;-54
2023/05/24 11:07:02;;;;;;;10.80;6.50;;;14.10;1.00;;;;;;5040277;28;20423;-57
2023/05/24 11:09:28;;;;;;;8.47;5.40;;;14.10;1.00;;;;;;5076370;28;20423;-53
2023/05/24 11:12:00;;;;;;;9.03;6.53;;;14.10;1.00;;;;;;5075409;28;20430;-56
2023/05/24 11:14:30;;;;;;;8.43;6.07;;;14.10;1.00;;;;;;5073791;28;20711;-54
2023/05/24 11:16:56;;;;;;;10.23;6.30;;;14.10;1.00;;;;;;5074296;28;20446;-58
2023/05/24 11:19:27;;;;;;;17.53;7.13;;;14.00;1.00;;;;;;5073000;28;20466;-55
2023/05/24 11:21:57;;;;;;;13.30;6.60;;;14.10;1.00;;;;;;5070458;28;20485;-58
2023/05/24 11:24:24;;;;;;;12.03;6.67;;;14.20;1.00;;;;;;5070293;28;20546;-58
2023/05/24 11:26:51;;;;;;;7.27;6.00;;;14.40;1.00;;;;;;5072060;28;20412;-55
2023/05/24 11:29:21;;;;;;;8.13;6.23;;;14.50;1.00;;;;;;5070750;28;20517;-55
2023/05/24 11:31:51;;;;;;;11.10;6.07;;;14.70;1.00;;;;;;5068801;28;20434;-55
2023/05/24 11:34:17;;;;;;;10.30;6.70;;;14.90;1.00;;;;;;5068965;28;20717;-56
2023/05/24 11:36:44;;;;;;;13.63;7.53;;;15.20;1.00;;;;;;5070743;28;20423;-57
2023/05/24 11:39:09;;;;;;;7.70;5.60;;;15.40;1.00;;;;;;5069887;28;20471;-55
2023/05/24 11:41:37;;;;;;;19.17;6.23;;;15.70;1.00;;;;;;5072272;28;20840;-57
2023/05/24 11:44:03;;;;;;;10.17;6.03;;;16.00;1.00;;;;;;5070955;28;20467;-56
2023/05/24 11:46:29;;;;;;;9.43;6.33;;;16.30;1.00;;;;;;5073369;28;20542;-56
2023/05/24 11:48:58;;;;;;;11.10;6.37;;;16.50;1.00;;;;;;5071525;28;20583;-56
2023/05/24 11:51:29;;;;;;;12.03;6.70;;;16.70;1.00;;;;;;5072104;28;20427;-57
2023/05/24 11:53:58;;;;;;;9.40;6.17;;;16.80;1.00;;;;;;5074466;28;20709;-56
2023/05/24 11:56:26;;;;;;;9.40;5.40;;;17.00;1.00;;;;;;5071883;28;20480;-55
2023/05/24 11:58:59;;;;;;;12.07;6.67;;;17.40;1.00;;;;;;5071733;28;20463;-55
2023/05/24 12:01:26;;;;;;;8.87;5.80;;;17.90;1.00;;;;;;5073256;28;20415;-55
2023/05/24 12:03:53;;;;;;;6.50;4.77;;;18.40;1.00;;;;;;5072608;28;20411;-55
2023/05/24 12:06:19;;;;;;;10.13;5.40;;;19.30;1.00;;;;;;5074126;28;20406;-53
2023/05/24 12:08:45;;;;;;;16.10;6.27;;;20.40;1.00;;;;;;5075248;28;20419;-52
2023/05/24 12:11:11;;;;;;;9.33;5.37;;;21.20;1.00;;;;;;5072322;28;20476;-56
2023/05/24 12:13:39;;;;;;;7.37;4.90;;;22.10;1.00;;;;;;5071318;28;21029;-54
2023/05/24 12:16:05;;;;;;;9.97;5.60;;;22.90;1.00;;;;;;5072185;28;20438;-50
2023/05/24 12:18:31;;;;;;;9.83;5.60;;;23.50;1.00;;;;;;5071335;28;20477;-50
2023/05/24 12:20:57;;;;;;;8.67;5.60;;;24.00;1.00;;;;;;5071026;28;20556;-50
2023/05/24 12:23:24;;;;;;;8.10;5.03;;;24.40;1.00;;;;;;5072065;28;20423;-51
2023/05/24 12:25:50;;;;;;;6.57;5.00;;;24.60;1.00;;;;;;5072946;28;20473;-52
2023/05/24 12:28:20;;;;;;;7.93;5.30;;;24.70;1.00;;;;;;5073064;28;20565;-56
2023/05/24 12:30:48;;;;;;;5.63;4.43;;;24.70;1.00;;;;;;5075092;28;20181;-52
2023/05/24 12:33:14;;;;;;;8.67;5.93;;;25.00;1.00;;;;;;5075028;28;20447;-52
2023/05/24 12:35:41;;;;;;;8.43;5.37;;;25.00;1.00;;;;;;5074534;28;20469;-52
2023/05/24 12:38:10;;;;;;;9.30;4.80;;;25.60;1.00;;;;;;5074049;28;20215;-53
2023/05/24 12:40:36;;;;;;;7.63;4.93;;;26.10;1.00;;;;;;5076361;28;20437;-49
2023/05/24 12:43:03;;;;;;;9.53;5.27;;;25.60;1.00;;;;;;5076564;28;20412;-52
2023/05/24 12:45:30;;;;;;;5.20;4.10;;;25.20;1.00;;;;;;5073543;28;20569;-52
2023/05/24 12:47:58;;;;;;;9.00;4.63;;;25.30;1.00;;;;;;5076418;28;20412;-50
2023/05/24 12:50:25;;;;;;;5.27;4.10;;;25.50;1.00;;;;;;5077029;28;20835;-51